Time;durP1;ratioP1;P1;durP2;ratioP2;P2;SDS_P1;SDS_P2;PMS_P1;PMS_P2;Temp;Humidity;BMP_temperature;BMP_pressure;BME280_temperature;BME280_humidity;BME280_pressure;Samples;Min_cycle;Max_cycle;Signal;HPM_P1;HPM_P2
2022/01/04 00:00:41;;;;;;;;;;;;;;;;;;5076824;28;20043;-84
2022/01/04 00:03:09;;;;;;;;;;;;;;;;;;5076796;28;20062;-85
2022/01/04 00:05:36;;;;;;;;;;;;;;;;;;5076387;28;20010;-83
2022/01/04 00:08:07;;;;;;;;;;;;;;;;;;5077062;28;20067;-83
2022/01/04 00:10:34;;;;;;;;;;;;;;;;;;5076855;28;20396;-86
2022/01/04 00:15:45;;;;;;;;;;;;;;;;;;5076820;28;19972;-84
2022/01/04 00:18:12;;;;;;;;;;;;;;;;;;5076906;28;20051;-83
2022/01/04 00:20:39;;;;;;;;;;;;;;;;;;5076252;28;20379;-83
2022/01/04 00:23:06;;;;;;;;;;;;;;;;;;5076439;28;20038;-84
2022/01/04 00:25:33;;;;;;;;;;;;;;;;;;5076009;28;20061;-84
2022/01/04 00:28:01;;;;;;;;;;;;;;;;;;5076324;28;20051;-87
2022/01/04 00:30:29;;;;;;;;;;;;;;;;;;5076028;28;20414;-83
2022/01/04 00:32:56;;;;;;;;;;;;;;;;;;5076128;28;20006;-86
2022/01/04 00:35:23;;;;;;;;;;;;;;;;;;5076615;28;20517;-85
2022/01/04 00:37:50;;;;;;;;;;;;;;;;;;5076238;28;20062;-84
2022/01/04 00:40:17;;;;;;;;;;;;;;;;;;5076244;28;20043;-87
2022/01/04 00:42:44;;;;;;;;;;;;;;;;;;5075955;28;20062;-85
2022/01/04 00:45:11;;;;;;;;;;;;;;;;;;5075643;28;20054;-81
2022/01/04 00:47:46;;;;;;;;;;;;;;;;;;5075460;28;20472;-82
2022/01/04 00:50:12;;;;;;;;;;;;;;;;;;5075899;28;19971;-84
2022/01/04 00:52:39;;;;;;;;;;;;;;;;;;5075852;28;20294;-82
2022/01/04 00:55:06;;;;;;;;;;;;;;;;;;5075724;28;20517;-83
2022/01/04 00:57:33;;;;;;;;;;;;;;;;;;5075533;28;20041;-85
2022/01/04 01:00:00;;;;;;;;;;;;;;;;;;5075633;28;20053;-83
2022/01/04 01:02:27;;;;;;;;;;;;;;;;;;5075529;28;20067;-85
2022/01/04 01:04:54;;;;;;;;;;;;;;;;;;5075320;28;20461;-84
2022/01/04 01:07:21;;;;;;;;;;;;;;;;;;5075948;28;20048;-85
2022/01/04 01:10:01;;;;;;;;;;;;;;;;;;5075379;28;20041;-85
2022/01/04 01:12:28;;;;;;;;;;;;;;;;;;5075391;28;19955;-84
2022/01/04 01:14:55;;;;;;;;;;;;;;;;;;5075450;28;20075;-83
2022/01/04 01:17:22;;;;;;;;;;;;;;;;;;5075236;28;20061;-84
2022/01/04 01:19:49;;;;;;;;;;;;;;;;;;5075053;28;20067;-82
2022/01/04 01:22:16;;;;;;;;;;;;;;;;;;5074988;28;20048;-85
2022/01/04 01:24:43;;;;;;;;;;;;;;;;;;5075014;28;20042;-83
2022/01/04 01:27:10;;;;;;;;;;;;;;;;;;5074985;28;20052;-83
2022/01/04 01:29:37;;;;;;;;;;;;;;;;;;5074926;28;20050;-84
2022/01/04 01:32:04;;;;;;;;;;;;;;;;;;5074789;28;20418;-83
2022/01/04 01:34:31;;;;;;;;;;;;;;;;;;5074745;28;20050;-84
2022/01/04 01:36:58;;;;;;;;;;;;;;;;;;5074741;28;20044;-84
2022/01/04 01:39:25;;;;;;;;;;;;;;;;;;5074527;28;20048;-83
2022/01/04 01:41:52;;;;;;;;;;;;;;;;;;5074546;28;20053;-82
2022/01/04 01:44:19;;;;;;;;;;;;;;;;;;5074575;28;20372;-82
2022/01/04 01:46:46;;;;;;;;;;;;;;;;;;5074678;28;20041;-83
2022/01/04 01:49:13;;;;;;;;;;;;;;;;;;5074411;28;20070;-82
2022/01/04 01:51:40;;;;;;;;;;;;;;;;;;5074468;28;20063;-83
2022/01/04 01:54:07;;;;;;;;;;;;;;;;;;5074341;28;20052;-83
2022/01/04 01:56:34;;;;;;;;;;;;;;;;;;5074534;28;20062;-84
2022/01/04 01:59:01;;;;;;;;;;;;;;;;;;5074531;28;20042;-83
2022/01/04 02:01:28;;;;;;;;;;;;;;;;;;5074294;28;20038;-83
2022/01/04 02:03:55;;;;;;;;;;;;;;;;;;5074303;28;20062;-83
2022/01/04 02:06:23;;;;;;;;;;;;;;;;;;5074104;28;20055;-83
2022/01/04 02:08:50;;;;;;;;;;;;;;;;;;5074439;28;20056;-84
2022/01/04 02:11:17;;;;;;;;;;;;;;;;;;5074050;28;20052;-83
2022/01/04 02:13:44;;;;;;;;;;;;;;;;;;5074327;28;20622;-84
2022/01/04 02:16:11;;;;;;;;;;;;;;;;;;5073950;28;20428;-83
2022/01/04 02:18:38;;;;;;;;;;;;;;;;;;5074358;28;20063;-84
2022/01/04 02:21:05;;;;;;;;;;;;;;;;;;5074346;28;20052;-83
2022/01/04 02:23:33;;;;;;;;;;;;;;;;;;5073781;28;20056;-84
2022/01/04 02:26:00;;;;;;;;;;;;;;;;;;5073943;28;19972;-84
2022/01/04 02:28:27;;;;;;;;;;;;;;;;;;5073988;28;20496;-83
2022/01/04 02:30:54;;;;;;;;;;;;;;;;;;5074039;28;20058;-85
2022/01/04 02:33:21;;;;;;;;;;;;;;;;;;5073781;28;19998;-84
2022/01/04 02:35:48;;;;;;;;;;;;;;;;;;5073622;28;20064;-86
2022/01/04 02:38:15;;;;;;;;;;;;;;;;;;5073748;28;20511;-84
2022/01/04 02:40:42;;;;;;;;;;;;;;;;;;5073728;28;20058;-84
2022/01/04 02:43:09;;;;;;;;;;;;;;;;;;5073845;28;20047;-85
2022/01/04 02:45:36;;;;;;;;;;;;;;;;;;5073611;28;19958;-85
2022/01/04 02:48:03;;;;;;;;;;;;;;;;;;5073432;28;20509;-86
2022/01/04 02:50:30;;;;;;;;;;;;;;;;;;5073956;28;20053;-85
2022/01/04 02:52:57;;;;;;;;;;;;;;;;;;5073833;28;20052;-86
2022/01/04 02:55:24;;;;;;;;;;;;;;;;;;5073868;28;20075;-85
2022/01/04 02:57:51;;;;;;;;;;;;;;;;;;5073507;28;20423;-85
2022/01/04 03:00:18;;;;;;;;;;;;;;;;;;5074094;28;20042;-85
2022/01/04 03:02:45;;;;;;;;;;;;;;;;;;5073663;28;20046;-86
2022/01/04 03:05:12;;;;;;;;;;;;;;;;;;5073675;28;20064;-85
2022/01/04 03:07:39;;;;;;;;;;;;;;;;;;5073411;28;20059;-85
2022/01/04 03:10:06;;;;;;;;;;;;;;;;;;5073574;28;20378;-85
2022/01/04 03:12:34;;;;;;;;;;;;;;;;;;5073447;28;20044;-86
2022/01/04 03:15:01;;;;;;;;;;;;;;;;;;5073465;28;19967;-85
2022/01/04 03:17:28;;;;;;;;;;;;;;;;;;5073260;28;20470;-85
2022/01/04 03:19:55;;;;;;;;;;;;;;;;;;5073703;28;20057;-85
2022/01/04 03:22:22;;;;;;;;;;;;;;;;;;5074160;28;20050;-85
2022/01/04 03:24:49;;;;;;;;;;;;;;;;;;5073898;28;20061;-86
2022/01/04 03:27:16;;;;;;;;;;;;;;;;;;5073456;28;20058;-85
2022/01/04 03:29:43;;;;;;;;;;;;;;;;;;5073796;28;20404;-86
2022/01/04 03:32:10;;;;;;;;;;;;;;;;;;5073604;28;20072;-87
2022/01/04 03:34:37;;;;;;;;;;;;;;;;;;5073637;28;20058;-85
2022/01/04 03:37:04;;;;;;;;;;;;;;;;;;5073756;28;20078;-85
2022/01/04 03:39:31;;;;;;;;;;;;;;;;;;5073657;28;20399;-86
2022/01/04 03:41:58;;;;;;;;;;;;;;;;;;5073266;28;19994;-85
2022/01/04 03:44:26;;;;;;;;;;;;;;;;;;5073506;28;20048;-85
2022/01/04 03:46:53;;;;;;;;;;;;;;;;;;5073323;28;19961;-85
2022/01/04 03:49:20;;;;;;;;;;;;;;;;;;5073178;28;20156;-85
2022/01/04 03:51:47;;;;;;;;;;;;;;;;;;5074100;28;20490;-87
2022/01/04 03:54:14;;;;;;;;;;;;;;;;;;5073574;28;20055;-85
2022/01/04 03:56:41;;;;;;;;;;;;;;;;;;5073151;28;20014;-85
2022/01/04 03:59:08;;;;;;;;;;;;;;;;;;5074266;28;20059;-84
2022/01/04 04:01:35;;;;;;;;;;;;;;;;;;5075940;28;19996;-85
2022/01/04 04:04:02;;;;;;;;;;;;;;;;;;5078430;28;20054;-85
2022/01/04 04:06:29;;;;;;;;;;;;;;;;;;5076944;28;20052;-84
2022/01/04 04:08:57;;;;;;;;;;;;;;;;;;5076830;28;20052;-83
2022/01/04 04:11:24;;;;;;;;;;;;;;;;;;5076552;28;20334;-84
2022/01/04 04:13:51;;;;;;;;;;;;;;;;;;5076908;28;20010;-83
2022/01/04 04:16:17;;;;;;;;;;;;;;;;;;5076348;28;20081;-84
2022/01/04 04:18:44;;;;;;;;;;;;;;;;;;5076284;28;20053;-84
2022/01/04 04:21:12;;;;;;;;;;;;;;;;;;5076434;28;20070;-85
2022/01/04 04:23:41;;;;;;;;;;;;;;;;;;5075681;28;20209;-84
2022/01/04 04:26:08;;;;;;;;;;;;;;;;;;5076324;28;20055;-84
2022/01/04 04:28:35;;;;;;;;;;;;;;;;;;5076340;28;19969;-83
2022/01/04 04:31:03;;;;;;;;;;;;;;;;;;5076331;28;20047;-84
2022/01/04 04:33:30;;;;;;;;;;;;;;;;;;5075866;28;20405;-83
2022/01/04 04:35:57;;;;;;;;;;;;;;;;;;5076110;28;20033;-84
2022/01/04 04:38:24;;;;;;;;;;;;;;;;;;5075845;28;20069;-84
2022/01/04 04:40:51;;;;;;;;;;;;;;;;;;5075760;28;20409;-83
2022/01/04 04:43:18;;;;;;;;;;;;;;;;;;5076063;28;20062;-84
2022/01/04 04:45:45;;;;;;;;;;;;;;;;;;5075939;28;20508;-84
2022/01/04 04:48:12;;;;;;;;;;;;;;;;;;5076040;28;20074;-83
2022/01/04 04:50:39;;;;;;;;;;;;;;;;;;5075957;28;20051;-84
2022/01/04 04:53:06;;;;;;;;;;;;;;;;;;5075610;28;20402;-84
2022/01/04 04:55:33;;;;;;;;;;;;;;;;;;5075941;28;20087;-83
2022/01/04 04:58:00;;;;;;;;;;;;;;;;;;5075885;28;20051;-84
2022/01/04 05:00:27;;;;;;;;;;;;;;;;;;5075730;28;20033;-84
2022/01/04 05:02:54;;;;;;;;;;;;;;;;;;5075633;28;20379;-83
2022/01/04 05:05:21;;;;;;;;;;;;;;;;;;5075771;28;20050;-87
2022/01/04 05:07:48;;;;;;;;;;;;;;;;;;5075518;28;20047;-83
2022/01/04 05:10:15;;;;;;;;;;;;;;;;;;5075718;28;19961;-84
2022/01/04 05:12:42;;;;;;;;;;;;;;;;;;5074489;28;20044;-83
2022/01/04 05:15:09;;;;;;;;;;;;;;;;;;5075956;28;20044;-84
2022/01/04 05:17:36;;;;;;;;;;;;;;;;;;5075551;28;20060;-83
2022/01/04 05:20:03;;;;;;;;;;;;;;;;;;5075438;28;20048;-84
2022/01/04 05:22:30;;;;;;;;;;;;;;;;;;5075279;28;20009;-83
2022/01/04 05:24:57;;;;;;;;;;;;;;;;;;5075191;28;20062;-82
2022/01/04 05:27:24;;;;;;;;;;;;;;;;;;5074849;28;20482;-84
2022/01/04 05:29:51;;;;;;;;;;;;;;;;;;5075055;28;20069;-85
2022/01/04 05:32:18;;;;;;;;;;;;;;;;;;5075626;28;20055;-84
2022/01/04 05:34:45;;;;;;;;;;;;;;;;;;5074826;28;20063;-83
2022/01/04 05:37:12;;;;;;;;;;;;;;;;;;5075011;28;19972;-83
2022/01/04 05:39:39;;;;;;;;;;;;;;;;;;5074557;28;20477;-83
2022/01/04 05:42:06;;;;;;;;;;;;;;;;;;5075501;28;20215;-84
2022/01/04 05:44:33;;;;;;;;;;;;;;;;;;5076056;28;19960;-84
2022/01/04 05:47:00;;;;;;;;;;;;;;;;;;5074807;28;20394;-83
2022/01/04 05:49:27;;;;;;;;;;;;;;;;;;5074735;28;20061;-85
2022/01/04 05:51:54;;;;;;;;;;;;;;;;;;5074595;28;20053;-84
2022/01/04 05:54:21;;;;;;;;;;;;;;;;;;5074474;28;20006;-84
2022/01/04 05:56:48;;;;;;;;;;;;;;;;;;5074241;28;20411;-84
2022/01/04 05:59:15;;;;;;;;;;;;;;;;;;5074244;28;20044;-84
2022/01/04 06:01:42;;;;;;;;;;;;;;;;;;5074099;28;19966;-83
2022/01/04 06:04:10;;;;;;;;;;;;;;;;;;5074299;28;20054;-83
2022/01/04 06:06:39;;;;;;;;;;;;;;;;;;5074668;28;19961;-84
2022/01/04 06:09:08;;;;;;;;;;;;;;;;;;5074152;28;19961;-84
2022/01/04 06:11:56;;;;;;;;;;;;;;;;;;5074115;28;19954;-83
2022/01/04 06:17:08;;;;;;;;;;;;;;;;;;5074204;28;20441;-84
2022/01/04 06:19:35;;;;;;;;;;;;;;;;;;5073997;28;20061;-84
2022/01/04 06:22:02;;;;;;;;;;;;;;;;;;5074129;28;20051;-84
2022/01/04 06:24:29;;;;;;;;;;;;;;;;;;5073834;28;20057;-85
2022/01/04 06:26:56;;;;;;;;;;;;;;;;;;5074135;28;20064;-85
2022/01/04 06:29:23;;;;;;;;;;;;;;;;;;5075555;28;20118;-85
2022/01/04 06:31:50;;;;;;;;;;;;;;;;;;5074250;28;19970;-84
2022/01/04 06:34:17;;;;;;;;;;;;;;;;;;5073858;28;20399;-84
2022/01/04 06:36:44;;;;;;;;;;;;;;;;;;5073731;28;20072;-84
2022/01/04 06:39:11;;;;;;;;;;;;;;;;;;5074008;28;20068;-84
2022/01/04 06:41:38;;;;;;;;;;;;;;;;;;5073651;28;20134;-84
2022/01/04 06:44:05;;;;;;;;;;;;;;;;;;5073813;28;20482;-84
2022/01/04 06:46:32;;;;;;;;;;;;;;;;;;5074274;28;19993;-84
2022/01/04 06:48:59;;;;;;;;;;;;;;;;;;5073627;28;19990;-84
2022/01/04 06:51:26;;;;;;;;;;;;;;;;;;5074133;28;20460;-85
2022/01/04 06:53:53;;;;;;;;;;;;;;;;;;5074076;28;19995;-85
2022/01/04 06:56:20;;;;;;;;;;;;;;;;;;5073795;28;20060;-84
2022/01/04 06:58:47;;;;;;;;;;;;;;;;;;5074780;28;20457;-86
2022/01/04 07:01:15;;;;;;;;;;;;;;;;;;5073781;28;20434;-83
2022/01/04 07:03:42;;;;;;;;;;;;;;;;;;5075046;28;20056;-84
2022/01/04 07:06:09;;;;;;;;;;;;;;;;;;5073876;28;20058;-83
2022/01/04 07:08:36;;;;;;;;;;;;;;;;;;5073763;28;20052;-84
2022/01/04 07:11:03;;;;;;;;;;;;;;;;;;5073654;28;20401;-87
2022/01/04 07:13:30;;;;;;;;;;;;;;;;;;5074107;28;20052;-84
2022/01/04 07:15:57;;;;;;;;;;;;;;;;;;5073475;28;20066;-84
2022/01/04 07:18:24;;;;;;;;;;;;;;;;;;5073593;28;20067;-83
2022/01/04 07:20:51;;;;;;;;;;;;;;;;;;5073261;28;19968;-83
2022/01/04 07:23:18;;;;;;;;;;;;;;;;;;5073597;28;20058;-83
2022/01/04 07:25:45;;;;;;;;;;;;;;;;;;5073420;28;20058;-83
2022/01/04 07:28:12;;;;;;;;;;;;;;;;;;5073530;28;20481;-83
2022/01/04 07:30:39;;;;;;;;;;;;;;;;;;5073424;28;20045;-84
2022/01/04 07:33:06;;;;;;;;;;;;;;;;;;5073503;28;20050;-84
2022/01/04 07:35:33;;;;;;;;;;;;;;;;;;5073422;28;20057;-84
2022/01/04 07:37:59;;;;;;;;;;;;;;;;;;5077297;28;20120;-83
2022/01/04 07:40:27;;;;;;;;;;;;;;;;;;5077157;28;20036;-83
2022/01/04 07:42:59;;;;;;;;;;;;;;;;;;5077071;28;20086;-84
2022/01/04 07:45:26;;;;;;;;;;;;;;;;;;5076947;28;20054;-83
2022/01/04 07:47:53;;;;;;;;;;;;;;;;;;5076885;28;20027;-85
2022/01/04 07:50:20;;;;;;;;;;;;;;;;;;5077293;28;19996;-83
2022/01/04 07:52:47;;;;;;;;;;;;;;;;;;5076732;28;20009;-83
2022/01/04 07:55:14;;;;;;;;;;;;;;;;;;5076802;28;20029;-83
2022/01/04 07:57:42;;;;;;;;;;;;;;;;;;5076544;28;20070;-83
2022/01/04 08:00:09;;;;;;;;;;;;;;;;;;5076704;28;19962;-84
2022/01/04 08:02:36;;;;;;;;;;;;;;;;;;5076485;28;20049;-83
2022/01/04 08:05:03;;;;;;;;;;;;;;;;;;5076495;28;20418;-82
2022/01/04 08:07:30;;;;;;;;;;;;;;;;;;5076735;28;20051;-83
2022/01/04 08:09:57;;;;;;;;;;;;;;;;;;5076561;28;20024;-82
2022/01/04 08:12:24;;;;;;;;;;;;;;;;;;5076270;28;19970;-83
2022/01/04 08:14:51;;;;;;;;;;;;;;;;;;5075998;28;20042;-81
2022/01/04 08:17:18;;;;;;;;;;;;;;;;;;5076155;28;20077;-82
2022/01/04 08:19:45;;;;;;;;;;;;;;;;;;5076115;28;20023;-83
2022/01/04 08:22:12;;;;;;;;;;;;;;;;;;5076621;28;19962;-83
2022/01/04 08:24:39;;;;;;;;;;;;;;;;;;5076252;28;20011;-82
2022/01/04 08:27:06;;;;;;;;;;;;;;;;;;5075998;28;20503;-83
2022/01/04 08:29:33;;;;;;;;;;;;;;;;;;5076001;28;20049;-83
2022/01/04 08:32:00;;;;;;;;;;;;;;;;;;5076076;28;20049;-82
2022/01/04 08:34:27;;;;;;;;;;;;;;;;;;5075919;28;20061;-80
2022/01/04 08:36:54;;;;;;;;;;;;;;;;;;5075931;28;20025;-82
2022/01/04 08:39:26;;;;;;;;;;;;;;;;;;5075872;28;19959;-85
2022/01/04 08:41:54;;;;;;;;;;;;;;;;;;5076280;28;20449;-84
2022/01/04 08:44:21;;;;;;;;;;;;;;;;;;5075789;28;20409;-83
2022/01/04 08:46:48;;;;;;;;;;;;;;;;;;5075798;28;20047;-83
2022/01/04 08:49:15;;;;;;;;;;;;;;;;;;5075723;28;20084;-85
2022/01/04 08:51:42;;;;;;;;;;;;;;;;;;5075670;28;20417;-82
2022/01/04 08:54:09;;;;;;;;;;;;;;;;;;5075669;28;20047;-83
2022/01/04 08:56:36;;;;;;;;;;;;;;;;;;5075340;28;20417;-83
2022/01/04 08:59:05;;;;;;;;;;;;;;;;;;5075298;28;20051;-82
2022/01/04 09:01:32;;;;;;;;;;;;;;;;;;5075270;28;20378;-82
2022/01/04 09:04:01;;;;;;;;;;;;;;;;;;5075515;28;20438;-83
2022/01/04 09:06:28;;;;;;;;;;;;;;;;;;5075378;28;19961;-82
2022/01/04 09:08:56;;;;;;;;;;;;;;;;;;5075993;28;20399;-83
2022/01/04 09:11:23;;;;;;;;;;;;;;;;;;5075194;28;19964;-83
2022/01/04 09:13:53;;;;;;;;;;;;;;;;;;5075486;28;20056;-83
2022/01/04 09:19:05;;;;;;;;;;;;;;;;;;5075407;28;20082;-83
2022/01/04 09:21:32;;;;;;;;;;;;;;;;;;5075005;28;20598;-84
2022/01/04 09:23:59;;;;;;;;;;;;;;;;;;5075310;28;20049;-83
2022/01/04 09:26:26;;;;;;;;;;;;;;;;;;5075067;28;19964;-83
2022/01/04 09:28:53;;;;;;;;;;;;;;;;;;5074974;28;20007;-83
2022/01/04 09:31:20;;;;;;;;;;;;;;;;;;5074741;28;20336;-82
2022/01/04 09:33:47;;;;;;;;;;;;;;;;;;5075236;28;20018;-83
2022/01/04 09:36:14;;;;;;;;;;;;;;;;;;5074802;28;20061;-82
2022/01/04 09:38:41;;;;;;;;;;;;;;;;;;5074685;28;20068;-83
2022/01/04 09:41:08;;;;;;;;;;;;;;;;;;5075052;28;20049;-83
2022/01/04 09:43:35;;;;;;;;;;;;;;;;;;5074807;28;20052;-82
2022/01/04 09:46:02;;;;;;;;;;;;;;;;;;5074793;28;20059;-87
2022/01/04 09:48:29;;;;;;;;;;;;;;;;;;5074972;28;19995;-85
2022/01/04 09:50:56;;;;;;;;;;;;;;;;;;5074760;28;20056;-86
2022/01/04 09:53:23;;;;;;;;;;;;;;;;;;5074433;28;20437;-83
2022/01/04 09:55:50;;;;;;;;;;;;;;;;;;5074528;28;20414;-83
2022/01/04 09:58:17;;;;;;;;;;;;;;;;;;5074288;28;20075;-83
2022/01/04 10:00:44;;;;;;;;;;;;;;;;;;5074077;28;20060;-83
2022/01/04 10:03:11;;;;;;;;;;;;;;;;;;5074136;28;20158;-83
2022/01/04 10:05:38;;;;;;;;;;;;;;;;;;5073967;28;19973;-82
2022/01/04 10:08:06;;;;;;;;;;;;;;;;;;5074090;28;20036;-82
2022/01/04 10:10:33;;;;;;;;;;;;;;;;;;5073983;28;20317;-83
2022/01/04 10:13:01;;;;;;;;;;;;;;;;;;5074420;28;20045;-82
2022/01/04 10:15:28;;;;;;;;;;;;;;;;;;5074411;28;19965;-82
2022/01/04 10:17:55;;;;;;;;;;;;;;;;;;5073627;28;20071;-83
2022/01/04 10:20:22;;;;;;;;;;;;;;;;;;5073860;28;20056;-84
2022/01/04 10:22:50;;;;;;;;;;;;;;;;;;5074154;28;20391;-85
2022/01/04 10:25:19;;;;;;;;;;;;;;;;;;5074309;28;19963;-84
2022/01/04 10:27:46;;;;;;;;;;;;;;;;;;5074271;28;19974;-83
2022/01/04 10:30:13;;;;;;;;;;;;;;;;;;5073675;28;20138;-83
2022/01/04 10:32:40;;;;;;;;;;;;;;;;;;5073582;28;20401;-83
2022/01/04 10:35:07;;;;;;;;;;;;;;;;;;5073948;28;20049;-85
2022/01/04 10:37:36;;;;;;;;;;;;;;;;;;5073952;28;20069;-84
2022/01/04 10:40:03;;;;;;;;;;;;;;;;;;5073795;28;20329;-82
2022/01/04 10:42:30;;;;;;;;;;;;;;;;;;5073721;28;20049;-83
2022/01/04 10:44:57;;;;;;;;;;;;;;;;;;5073653;28;20054;-82
2022/01/04 10:47:24;;;;;;;;;;;;;;;;;;5073829;28;20054;-83
2022/01/04 10:49:51;;;;;;;;;;;;;;;;;;5073398;28;20079;-83
2022/01/04 10:52:22;;;;;;;;;;;;;;;;;;5073671;28;20589;-83
2022/01/04 10:54:49;;;;;;;;;;;;;;;;;;5073808;28;19958;-82
2022/01/04 10:57:16;;;;;;;;;;;;;;;;;;5073895;28;20074;-83
2022/01/04 10:59:43;;;;;;;;;;;;;;;;;;5074851;28;20048;-83
2022/01/04 11:02:10;;;;;;;;;;;;;;;;;;5073699;28;20001;-83
2022/01/04 11:04:39;;;;;;;;;;;;;;;;;;5073781;28;19973;-83
2022/01/04 11:07:06;;;;;;;;;;;;;;;;;;5073432;28;19969;-83
2022/01/04 11:09:33;;;;;;;;;;;;;;;;;;5073354;28;20392;-84
2022/01/04 11:12:00;;;;;;;;;;;;;;;;;;5076181;28;20032;-83
2022/01/04 11:14:27;;;;;;;;;;;;;;;;;;5077529;28;20063;-84
2022/01/04 11:16:54;;;;;;;;;;;;;;;;;;5077402;28;20060;-83
2022/01/04 11:19:21;;;;;;;;;;;;;;;;;;5077278;28;20476;-83
2022/01/04 11:21:48;;;;;;;;;;;;;;;;;;5077602;28;20060;-84
2022/01/04 11:24:16;;;;;;;;;;;;;;;;;;5077452;28;19962;-82
2022/01/04 11:26:43;;;;;;;;;;;;;;;;;;5077574;28;20456;-84
2022/01/04 11:29:10;;;;;;;;;;;;;;;;;;5078684;28;20055;-84
2022/01/04 11:31:38;;;;;;;;;;;;;;;;;;5077763;28;20067;-83
2022/01/04 11:34:04;;;;;;;;;;;;;;;;;;5077072;28;20414;-83
2022/01/04 11:36:31;;;;;;;;;;;;;;;;;;5077121;28;20012;-84
2022/01/04 11:38:58;;;;;;;;;;;;;;;;;;5077235;28;19993;-83
2022/01/04 11:41:25;;;;;;;;;;;;;;;;;;5077081;28;20056;-83
2022/01/04 11:43:52;;;;;;;;;;;;;;;;;;5076878;28;20039;-83
2022/01/04 11:46:19;;;;;;;;;;;;;;;;;;5077202;28;20378;-83
2022/01/04 11:48:46;;;;;;;;;;;;;;;;;;5076889;28;20075;-84
2022/01/04 11:51:13;;;;;;;;;;;;;;;;;;5076715;28;19998;-83
2022/01/04 11:53:40;;;;;;;;;;;;;;;;;;5076706;28;20466;-83
2022/01/04 11:56:09;;;;;;;;;;;;;;;;;;5076541;28;20051;-84
2022/01/04 11:58:36;;;;;;;;;;;;;;;;;;5076585;28;19987;-83
2022/01/04 12:01:03;;;;;;;;;;;;;;;;;;5076650;28;20433;-84
2022/01/04 12:03:30;;;;;;;;;;;;;;;;;;5076408;28;20401;-83
2022/01/04 12:05:57;;;;;;;;;;;;;;;;;;5076494;28;20030;-83
2022/01/04 12:08:24;;;;;;;;;;;;;;;;;;5076467;28;20017;-83
2022/01/04 12:10:51;;;;;;;;;;;;;;;;;;5076410;28;20449;-83
2022/01/04 12:13:18;;;;;;;;;;;;;;;;;;5075933;28;20056;-83
2022/01/04 12:15:45;;;;;;;;;;;;;;;;;;5076292;28;20525;-84
2022/01/04 12:18:12;;;;;;;;;;;;;;;;;;5076073;28;20023;-84
2022/01/04 12:20:39;;;;;;;;;;;;;;;;;;5076094;28;20051;-83
2022/01/04 12:23:06;;;;;;;;;;;;;;;;;;5076400;28;20060;-83
2022/01/04 12:25:33;;;;;;;;;;;;;;;;;;5077557;28;20390;-82
2022/01/04 12:28:00;;;;;;;;;;;;;;;;;;5076902;28;20049;-83
2022/01/04 12:30:27;;;;;;;;;;;;;;;;;;5076637;28;20082;-83
2022/01/04 12:32:54;;;;;;;;;;;;;;;;;;5076377;28;19996;-84
2022/01/04 12:35:21;;;;;;;;;;;;;;;;;;5076718;28;19998;-84
2022/01/04 12:37:48;;;;;;;;;;;;;;;;;;5081628;28;20034;-83
2022/01/04 12:40:15;;;;;;;;;;;;;;;;;;5078554;28;20008;-83
2022/01/04 12:42:42;;;;;;;;;;;;;;;;;;5076875;28;20416;-83
2022/01/04 12:45:09;;;;;;;;;;;;;;;;;;5075950;28;20043;-84
2022/01/04 12:47:37;;;;;;;;;;;;;;;;;;5076143;28;20005;-84
2022/01/04 12:50:05;;;;;;;;;;;;;;;;;;5076105;28;19965;-82
2022/01/04 12:52:32;;;;;;;;;;;;;;;;;;5075815;28;19993;-82
2022/01/04 12:54:59;;;;;;;;;;;;;;;;;;5075742;28;20333;-82
2022/01/04 12:57:26;;;;;;;;;;;;;;;;;;5075599;28;20062;-82
2022/01/04 12:59:53;;;;;;;;;;;;;;;;;;5075713;28;19965;-82
2022/01/04 13:02:20;;;;;;;;;;;;;;;;;;5075533;28;20052;-82
2022/01/04 13:04:48;;;;;;;;;;;;;;;;;;5075263;28;20037;-81
2022/01/04 13:07:15;;;;;;;;;;;;;;;;;;5075441;28;19969;-82
2022/01/04 13:09:42;;;;;;;;;;;;;;;;;;5075495;28;19957;-85
2022/01/04 13:12:09;;;;;;;;;;;;;;;;;;5075190;28;19993;-83
2022/01/04 13:14:36;;;;;;;;;;;;;;;;;;5075335;28;19993;-82
2022/01/04 13:17:03;;;;;;;;;;;;;;;;;;5075142;28;20393;-82
2022/01/04 13:19:30;;;;;;;;;;;;;;;;;;5075260;28;20028;-82
2022/01/04 13:21:57;;;;;;;;;;;;;;;;;;5074953;28;20055;-83
2022/01/04 13:24:24;;;;;;;;;;;;;;;;;;5075014;28;20396;-82
2022/01/04 13:26:51;;;;;;;;;;;;;;;;;;5075080;28;20043;-82
2022/01/04 13:29:18;;;;;;;;;;;;;;;;;;5074799;28;20051;-84
2022/01/04 13:31:45;;;;;;;;;;;;;;;;;;5074916;28;20059;-82
2022/01/04 13:34:12;;;;;;;;;;;;;;;;;;5074174;28;20056;-82
2022/01/04 13:36:41;;;;;;;;;;;;;;;;;;5074760;28;20052;-82
2022/01/04 13:39:08;;;;;;;;;;;;;;;;;;5074663;28;19981;-82
2022/01/04 13:41:35;;;;;;;;;;;;;;;;;;5074670;28;20397;-81
2022/01/04 13:44:02;;;;;;;;;;;;;;;;;;5074757;28;20013;-82
2022/01/04 13:46:29;;;;;;;;;;;;;;;;;;5074342;28;19998;-82
2022/01/04 13:48:56;;;;;;;;;;;;;;;;;;5074454;28;20026;-83
2022/01/04 13:51:23;;;;;;;;;;;;;;;;;;5074447;28;19964;-82
2022/01/04 13:53:52;;;;;;;;;;;;;;;;;;5074568;28;20397;-83
2022/01/04 13:56:19;;;;;;;;;;;;;;;;;;5074457;28;19957;-83
2022/01/04 13:58:47;;;;;;;;;;;;;;;;;;5074141;28;20454;-83
2022/01/04 14:01:14;;;;;;;;;;;;;;;;;;5074498;28;19959;-83
2022/01/04 14:03:41;;;;;;;;;;;;;;;;;;5074354;28;20368;-83
2022/01/04 14:06:08;;;;;;;;;;;;;;;;;;5074125;28;19956;-83
2022/01/04 14:08:35;;;;;;;;;;;;;;;;;;5074253;28;20010;-83
2022/01/04 14:11:02;;;;;;;;;;;;;;;;;;5074178;28;20050;-83
2022/01/04 14:13:29;;;;;;;;;;;;;;;;;;5073986;28;20411;-83
2022/01/04 14:15:56;;;;;;;;;;;;;;;;;;5074203;28;20010;-83
2022/01/04 14:18:23;;;;;;;;;;;;;;;;;;5074693;28;19956;-84
2022/01/04 14:20:50;;;;;;;;;;;;;;;;;;5074849;28;19965;-83
2022/01/04 14:23:17;;;;;;;;;;;;;;;;;;5074156;28;20006;-83
2022/01/04 14:25:44;;;;;;;;;;;;;;;;;;5073401;28;19995;-83
2022/01/04 14:28:11;;;;;;;;;;;;;;;;;;5073875;28;20051;-82
2022/01/04 14:30:38;;;;;;;;;;;;;;;;;;5073968;28;20039;-83
2022/01/04 14:33:07;;;;;;;;;;;;;;;;;;5073886;28;20044;-83
2022/01/04 14:35:35;;;;;;;;;;;;;;;;;;5073889;28;19967;-83
2022/01/04 14:38:02;;;;;;;;;;;;;;;;;;5073677;28;20007;-84
2022/01/04 14:40:29;;;;;;;;;;;;;;;;;;5073617;28;20075;-84
2022/01/04 14:42:56;;;;;;;;;;;;;;;;;;5073879;28;20042;-85
2022/01/04 14:45:24;;;;;;;;;;;;;;;;;;5073439;28;20012;-83
2022/01/04 14:47:51;;;;;;;;;;;;;;;;;;5073614;28;20330;-84
2022/01/04 14:50:18;;;;;;;;;;;;;;;;;;5073754;28;20003;-84
2022/01/04 14:52:45;;;;;;;;;;;;;;;;;;5073585;28;19956;-84
2022/01/04 14:55:12;;;;;;;;;;;;;;;;;;5073785;28;19981;-84
2022/01/04 14:57:39;;;;;;;;;;;;;;;;;;5073787;28;20000;-84
2022/01/04 15:00:06;;;;;;;;;;;;;;;;;;5073391;28;20419;-84
2022/01/04 15:02:33;;;;;;;;;;;;;;;;;;5073475;28;19995;-84
2022/01/04 15:05:00;;;;;;;;;;;;;;;;;;5073382;28;20007;-83
2022/01/04 15:07:27;;;;;;;;;;;;;;;;;;5073517;28;19959;-84
2022/01/04 15:09:56;;;;;;;;;;;;;;;;;;5073602;28;20603;-84
2022/01/04 15:12:23;;;;;;;;;;;;;;;;;;5073382;28;20010;-83
2022/01/04 15:14:50;;;;;;;;;;;;;;;;;;5073470;28;20042;-84
2022/01/04 15:17:17;;;;;;;;;;;;;;;;;;5073781;28;20044;-84
2022/01/04 15:19:44;;;;;;;;;;;;;;;;;;5073403;28;20020;-83
2022/01/04 15:22:11;;;;;;;;;;;;;;;;;;5073352;28;20394;-84
2022/01/04 15:24:38;;;;;;;;;;;;;;;;;;5073394;28;19989;-84
2022/01/04 15:27:05;;;;;;;;;;;;;;;;;;5073355;28;19994;-84
2022/01/04 15:29:32;;;;;;;;;;;;;;;;;;5073352;28;20021;-84
2022/01/04 15:31:59;;;;;;;;;;;;;;;;;;5073292;28;19994;-83
2022/01/04 15:34:26;;;;;;;;;;;;;;;;;;5073338;28;20039;-83
2022/01/04 15:36:53;;;;;;;;;;;;;;;;;;5073270;28;20050;-84
2022/01/04 15:39:23;;;;;;;;;;;;;;;;;;5073220;28;20067;-84
2022/01/04 15:41:50;;;;;;;;;;;;;;;;;;5073203;28;19956;-84
2022/01/04 15:44:17;;;;;;;;;;;;;;;;;;5073096;28;20058;-84
2022/01/04 15:46:44;;;;;;;;;;;;;;;;;;5073058;28;20388;-84
2022/01/04 15:49:11;;;;;;;;;;;;;;;;;;5072851;28;20031;-84
2022/01/04 15:51:38;;;;;;;;;;;;;;;;;;5073340;28;19991;-84
2022/01/04 15:54:05;;;;;;;;;;;;;;;;;;5073258;28;19997;-83
2022/01/04 15:56:33;;;;;;;;;;;;;;;;;;5073079;28;20481;-83
2022/01/04 15:59:00;;;;;;;;;;;;;;;;;;5077215;28;19984;-84
2022/01/04 16:01:27;;;;;;;;;;;;;;;;;;5076876;28;20387;-83
2022/01/04 16:03:54;;;;;;;;;;;;;;;;;;5076607;28;20033;-83
2022/01/04 16:06:21;;;;;;;;;;;;;;;;;;5076862;28;19993;-83
2022/01/04 16:08:48;;;;;;;;;;;;;;;;;;5076516;28;20051;-83
2022/01/04 16:11:15;;;;;;;;;;;;;;;;;;5076589;28;20059;-83
2022/01/04 16:13:42;;;;;;;;;;;;;;;;;;5076304;28;20004;-83
2022/01/04 16:16:14;;;;;;;;;;;;;;;;;;5076329;28;20000;-83
2022/01/04 16:21:36;;;;;;;;;;;;;;;;;;5075675;28;19950;-83
2022/01/04 16:24:03;;;;;;;;;;;;;;;;;;5076294;28;20000;-83
2022/01/04 16:26:30;;;;;;;;;;;;;;;;;;5076579;28;20054;-83
2022/01/04 16:28:56;;;;;;;;;;;;;;;;;;5076061;28;19994;-83
2022/01/04 16:31:23;;;;;;;;;;;;;;;;;;5076393;28;20048;-83
2022/01/04 16:33:51;;;;;;;;;;;;;;;;;;5076058;28;20053;-83
2022/01/04 16:36:18;;;;;;;;;;;;;;;;;;5076188;28;20050;-83
2022/01/04 16:38:45;;;;;;;;;;;;;;;;;;5076233;28;20065;-83
2022/01/04 16:41:11;;;;;;;;;;;;;;;;;;5075926;28;20055;-83
2022/01/04 16:43:38;;;;;;;;;;;;;;;;;;5075768;28;20380;-83
2022/01/04 16:46:05;;;;;;;;;;;;;;;;;;5076058;28;20044;-84
2022/01/04 16:48:33;;;;;;;;;;;;;;;;;;5075904;28;20076;-83
2022/01/04 16:51:00;;;;;;;;;;;;;;;;;;5075903;28;19963;-83
2022/01/04 16:53:27;;;;;;;;;;;;;;;;;;5075680;28;20450;-84
2022/01/04 16:55:54;;;;;;;;;;;;;;;;;;5075831;28;19958;-84